createdAt,value
2018-06-17T00:00:05.817Z,20.08
2018-06-17T00:01:05.820Z,20.05
2018-06-17T00:02:05.827Z,19.95
2018-06-17T00:03:05.827Z,19.91
2018-06-17T00:04:05.828Z,19.92
2018-06-17T00:05:05.834Z,19.96
2018-06-17T00:06:05.834Z,19.95
2018-06-17T00:07:05.836Z,19.94
2018-06-17T00:08:05.839Z,19.94
2018-06-17T00:09:05.838Z,19.99
2018-06-17T00:10:05.842Z,20.03
2018-06-17T00:11:05.847Z,19.95
2018-06-17T00:12:05.848Z,20.06
2018-06-17T00:13:05.852Z,19.99
2018-06-17T00:14:05.856Z,20.02
2018-06-17T00:15:05.857Z,20.06
2018-06-17T00:16:05.857Z,20.13
2018-06-17T00:17:05.873Z,20.08
2018-06-17T00:18:05.868Z,20.10
2018-06-17T00:19:05.870Z,20.08
2018-06-17T00:20:05.868Z,20.05
2018-06-17T00:21:05.872Z,20.11
2018-06-17T00:22:05.874Z,20.10
2018-06-17T00:23:05.877Z,20.02
2018-06-17T00:24:05.878Z,20.02
2018-06-17T00:25:05.886Z,20.01
2018-06-17T00:26:05.883Z,20.05
2018-06-17T00:27:05.888Z,20.02
2018-06-17T00:28:05.888Z,20.14
2018-06-17T00:29:05.894Z,20.20
2018-06-17T00:30:05.898Z,20.17
2018-06-17T00:31:05.897Z,20.18
2018-06-17T00:32:05.902Z,20.17
2018-06-17T00:33:05.905Z,20.14
2018-06-17T00:34:05.903Z,20.13
2018-06-17T00:35:05.907Z,20.05
2018-06-17T00:36:05.912Z,20.06
2018-06-17T00:37:05.912Z,20.06
2018-06-17T00:38:05.913Z,20.01
2018-06-17T00:39:05.959Z,20.08
2018-06-17T00:40:05.920Z,20.08
2018-06-17T00:41:05.938Z,20.14
2018-06-17T00:42:05.925Z,20.17
2018-06-17T00:43:05.928Z,20.08
2018-06-17T00:44:05.928Z,20.08
2018-06-17T00:45:05.931Z,20.03
2018-06-17T00:46:05.939Z,20.03
2018-06-17T00:47:05.937Z,19.88
2018-06-17T00:48:05.944Z,19.98
2018-06-17T00:49:05.942Z,19.96
2018-06-17T00:50:05.946Z,19.86
2018-06-17T00:51:05.949Z,19.77
2018-06-17T00:52:05.950Z,19.81
2018-06-17T00:53:05.954Z,19.77
2018-06-17T00:54:05.961Z,19.84
2018-06-17T00:55:05.960Z,19.80
2018-06-17T00:56:05.959Z,19.86
2018-06-17T00:57:05.963Z,19.73
2018-06-17T00:58:05.965Z,19.77
2018-06-17T00:59:05.966Z,19.68
2018-06-17T01:00:05.971Z,19.61
2018-06-17T01:01:05.972Z,19.66
2018-06-17T01:02:05.976Z,19.66
2018-06-17T01:03:05.979Z,19.66
2018-06-17T01:04:06.044Z,19.69
2018-06-17T01:05:05.981Z,19.62
2018-06-17T01:06:05.989Z,19.66
2018-06-17T01:07:05.989Z,19.47
2018-06-17T01:08:05.990Z,19.54
2018-06-17T01:09:05.993Z,19.51
2018-06-17T01:10:05.996Z,19.51
2018-06-17T01:11:06.001Z,19.51
2018-06-17T01:12:06.003Z,19.59
2018-06-17T01:13:06.002Z,19.50
2018-06-17T01:14:06.008Z,19.51
2018-06-17T01:15:06.007Z,19.48
2018-06-17T01:16:06.009Z,19.50
2018-06-17T01:17:06.013Z,19.54
2018-06-17T01:18:06.015Z,19.47
2018-06-17T01:19:06.017Z,19.47
2018-06-17T01:20:06.020Z,19.54
2018-06-17T01:21:06.021Z,19.41
2018-06-17T01:22:06.021Z,19.40
2018-06-17T01:23:06.025Z,19.37
2018-06-17T01:24:06.029Z,19.40
2018-06-17T01:25:06.030Z,19.37
2018-06-17T01:26:06.034Z,19.41
2018-06-17T01:27:06.039Z,19.40
2018-06-17T01:28:06.038Z,19.37
2018-06-17T01:29:06.039Z,19.39
2018-06-17T01:30:06.041Z,19.39
2018-06-17T01:31:06.045Z,19.44
2018-06-17T01:32:06.045Z,19.40
2018-06-17T01:33:06.051Z,19.44
2018-06-17T01:34:06.049Z,19.44
2018-06-17T01:35:06.055Z,19.41
2018-06-17T01:36:06.056Z,19.39
2018-06-17T01:37:06.057Z,19.39
2018-06-17T01:38:06.060Z,19.37
2018-06-17T01:39:06.061Z,19.44
2018-06-17T01:40:06.068Z,19.33
2018-06-17T01:41:06.071Z,19.39
2018-06-17T01:42:06.069Z,19.39
2018-06-17T01:43:06.072Z,19.39
2018-06-17T01:44:06.069Z,19.25
2018-06-17T01:45:06.073Z,19.16
2018-06-17T01:46:06.078Z,19.14
2018-06-17T01:47:06.081Z,18.94
2018-06-17T01:48:06.082Z,18.90
2018-06-17T01:49:06.083Z,18.94
2018-06-17T01:50:06.085Z,18.69
2018-06-17T01:51:06.085Z,18.70
2018-06-17T01:52:06.089Z,18.73
2018-06-17T01:53:06.090Z,18.69
2018-06-17T01:54:06.100Z,18.69
2018-06-17T01:55:06.097Z,18.70
2018-06-17T01:56:06.095Z,18.65
2018-06-17T01:57:06.100Z,18.65
2018-06-17T01:58:06.111Z,18.63
2018-06-17T01:59:06.106Z,18.67
2018-06-17T02:00:06.104Z,18.70
2018-06-17T02:01:06.107Z,18.78
2018-06-17T02:02:06.106Z,18.65
2018-06-17T02:03:06.113Z,18.69
2018-06-17T02:04:06.115Z,18.72
2018-06-17T02:05:06.114Z,18.69
2018-06-17T02:06:06.113Z,18.75
2018-06-17T02:07:06.116Z,18.70
2018-06-17T02:08:06.119Z,18.81
2018-06-17T02:09:06.120Z,18.70
2018-06-17T02:10:06.123Z,18.87
2018-06-17T02:11:06.126Z,18.84
2018-06-17T02:12:06.127Z,18.84
2018-06-17T02:13:06.128Z,18.85
2018-06-17T02:14:06.131Z,18.90
2018-06-17T02:15:06.132Z,18.91
2018-06-17T02:16:06.138Z,18.99
2018-06-17T02:17:06.135Z,18.92
2018-06-17T02:18:06.140Z,18.95
2018-06-17T02:19:06.143Z,18.98
2018-06-17T02:20:06.140Z,18.99
2018-06-17T02:21:06.143Z,18.99
2018-06-17T02:22:06.146Z,19.07
2018-06-17T02:23:06.147Z,19.08
2018-06-17T02:24:06.152Z,18.99
2018-06-17T02:25:06.148Z,19.02
2018-06-17T02:26:06.150Z,19.02
2018-06-17T02:27:06.151Z,19.00
2018-06-17T02:28:06.162Z,19.02
2018-06-17T02:29:06.159Z,19.07
2018-06-17T02:30:06.160Z,19.00
2018-06-17T02:31:06.161Z,18.98
2018-06-17T02:32:06.160Z,18.92
2018-06-17T02:33:06.166Z,19.00
2018-06-17T02:34:06.167Z,18.94
2018-06-17T02:35:06.169Z,19.02
2018-06-17T02:36:06.170Z,19.00
2018-06-17T02:37:06.174Z,18.98
2018-06-17T02:38:06.173Z,18.95
2018-06-17T02:39:06.177Z,18.92
2018-06-17T02:40:06.177Z,18.98
2018-06-17T02:41:06.180Z,18.91
2018-06-17T02:42:06.181Z,18.87
2018-06-17T02:43:06.183Z,18.76
2018-06-17T02:44:06.185Z,18.87
2018-06-17T02:45:06.193Z,18.85
2018-06-17T02:46:06.186Z,18.92
2018-06-17T02:47:06.189Z,18.91
2018-06-17T02:48:06.191Z,18.94
2018-06-17T02:49:06.192Z,18.90
2018-06-17T02:50:06.197Z,18.98
2018-06-17T02:51:06.203Z,18.85
2018-06-17T02:52:06.199Z,18.92
2018-06-17T02:53:06.199Z,18.73
2018-06-17T02:54:06.202Z,18.92
2018-06-17T02:55:06.207Z,18.78
2018-06-17T02:56:06.208Z,18.85
2018-06-17T02:57:06.208Z,18.76
2018-06-17T02:58:06.218Z,18.73
2018-06-17T02:59:06.212Z,18.73
2018-06-17T03:00:06.218Z,18.73
2018-06-17T03:01:06.215Z,18.73
2018-06-17T03:02:06.218Z,18.72
2018-06-17T03:03:06.225Z,18.76
2018-06-17T03:04:06.220Z,18.73
2018-06-17T03:05:06.223Z,18.70
2018-06-17T03:06:06.230Z,18.72
2018-06-17T03:07:06.226Z,18.72
2018-06-17T03:08:06.233Z,18.73
2018-06-17T03:09:06.227Z,18.69
2018-06-17T03:10:06.233Z,18.73
2018-06-17T03:11:06.235Z,18.73
2018-06-17T03:12:06.234Z,18.62
2018-06-17T03:13:06.237Z,18.66
2018-06-17T03:14:06.237Z,18.58
2018-06-17T03:15:06.240Z,18.60
2018-06-17T03:16:06.241Z,18.72
2018-06-17T03:17:06.244Z,18.69
2018-06-17T03:18:06.244Z,18.70
2018-06-17T03:19:06.248Z,18.72
2018-06-17T03:20:06.251Z,18.73
2018-06-17T03:21:06.251Z,18.78
2018-06-17T03:22:06.251Z,18.85
2018-06-17T03:23:06.255Z,18.82
2018-06-17T03:24:06.254Z,18.87
2018-06-17T03:25:06.259Z,18.88
2018-06-17T03:26:06.261Z,18.91
2018-06-17T03:27:06.264Z,19.18
2018-06-17T03:28:06.261Z,19.40
2018-06-17T03:29:06.260Z,19.68
2018-06-17T03:30:06.265Z,19.92
2018-06-17T03:31:06.268Z,20.18
2018-06-17T03:32:06.270Z,20.35
2018-06-17T03:33:06.272Z,20.48
2018-06-17T03:34:06.274Z,20.77
2018-06-17T03:35:06.276Z,20.91
2018-06-17T03:36:06.277Z,21.10
2018-06-17T03:37:06.285Z,21.37
2018-06-17T03:38:06.280Z,21.47
2018-06-17T03:39:06.286Z,21.64
2018-06-17T03:40:06.285Z,21.75
2018-06-17T03:41:06.291Z,21.99
2018-06-17T03:42:06.289Z,22.12
2018-06-17T03:43:06.293Z,22.21
2018-06-17T03:44:06.293Z,22.45
2018-06-17T03:45:06.297Z,22.51
2018-06-17T03:46:06.298Z,22.52
2018-06-17T03:47:06.305Z,22.65
2018-06-17T03:48:06.305Z,22.90
2018-06-17T03:49:06.307Z,23.16
2018-06-17T03:50:06.304Z,23.22
2018-06-17T03:51:06.307Z,23.40
2018-06-17T03:52:06.310Z,23.57
2018-06-17T03:53:06.315Z,23.73
2018-06-17T03:54:06.319Z,23.83
2018-06-17T03:55:06.320Z,23.97
2018-06-17T03:56:06.321Z,24.00
2018-06-17T03:57:06.328Z,24.32
2018-06-17T03:58:06.326Z,24.35
2018-06-17T03:59:06.328Z,24.61
2018-06-17T04:00:06.333Z,24.77
2018-06-17T04:01:06.335Z,24.95
2018-06-17T04:02:06.337Z,24.98
2018-06-17T04:03:06.343Z,24.99
2018-06-17T04:04:06.347Z,25.23
2018-06-17T04:05:06.349Z,25.47
2018-06-17T04:06:06.357Z,25.54
2018-06-17T04:07:06.356Z,25.64
2018-06-17T04:08:06.356Z,25.82
2018-06-17T04:09:06.359Z,25.83
2018-06-17T04:10:06.362Z,25.79
2018-06-17T04:11:06.367Z,25.54
2018-06-17T04:12:06.369Z,25.83
2018-06-17T04:13:06.371Z,26.18
2018-06-17T04:14:06.375Z,26.39
2018-06-17T04:15:06.379Z,26.62
2018-06-17T04:16:06.381Z,26.82
2018-06-17T04:17:06.381Z,27.02
2018-06-17T04:18:06.386Z,27.14
2018-06-17T04:19:06.391Z,27.32
2018-06-17T04:20:06.396Z,27.50
2018-06-17T04:21:06.403Z,27.66
2018-06-17T04:22:06.403Z,27.75
2018-06-17T04:23:06.409Z,27.94
2018-06-17T04:24:06.410Z,27.94
2018-06-17T04:25:06.414Z,27.62
2018-06-17T04:26:06.413Z,27.49
2018-06-17T04:27:06.423Z,27.47
2018-06-17T04:28:06.424Z,27.51
2018-06-17T04:29:06.427Z,27.39
2018-06-17T04:30:06.433Z,27.36
2018-06-17T04:31:06.440Z,27.54
2018-06-17T04:32:06.441Z,27.66
2018-06-17T04:33:06.446Z,27.31
2018-06-17T04:34:06.451Z,27.50
2018-06-17T04:35:06.457Z,27.40
2018-06-17T04:36:06.458Z,27.72
2018-06-17T04:37:06.462Z,28.09
2018-06-17T04:38:06.469Z,28.46
2018-06-17T04:39:06.475Z,28.71
2018-06-17T04:40:06.482Z,28.81
2018-06-17T04:41:06.481Z,28.98
2018-06-17T04:42:06.484Z,29.30
2018-06-17T04:43:06.492Z,29.64
2018-06-17T04:44:06.495Z,29.73
2018-06-17T04:45:06.501Z,29.98
2018-06-17T04:46:06.512Z,30.20
2018-06-17T04:47:06.509Z,30.02
2018-06-17T04:48:06.515Z,29.67
2018-06-17T04:49:06.518Z,29.83
2018-06-17T04:50:06.524Z,30.32
2018-06-17T04:51:06.528Z,30.02
2018-06-17T04:52:06.531Z,30.35
2018-06-17T04:53:06.537Z,30.31
2018-06-17T04:54:06.542Z,30.49
2018-06-17T04:55:06.550Z,30.53
2018-06-17T04:56:06.553Z,30.75
2018-06-17T04:57:06.556Z,30.89
2018-06-17T04:58:06.563Z,30.69
2018-06-17T04:59:06.569Z,30.55
2018-06-17T05:00:06.668Z,30.82
2018-06-17T05:01:06.575Z,31.13
2018-06-17T05:02:06.582Z,31.21
2018-06-17T05:03:06.588Z,31.19
2018-06-17T05:04:06.593Z,31.12
2018-06-17T05:05:06.601Z,30.42
2018-06-17T05:06:06.606Z,30.61
2018-06-17T05:07:06.611Z,30.54
2018-06-17T05:08:06.618Z,30.92
2018-06-17T05:09:06.626Z,31.26
2018-06-17T05:10:06.630Z,30.94
2018-06-17T05:11:06.635Z,30.75
2018-06-17T05:12:06.640Z,30.97
2018-06-17T05:13:06.645Z,31.29
2018-06-17T05:14:06.652Z,31.75
2018-06-17T05:15:06.658Z,31.85
2018-06-17T05:16:06.662Z,32.10
2018-06-17T05:17:06.680Z,32.08
2018-06-17T05:18:06.678Z,30.99
2018-06-17T05:19:06.684Z,30.70
2018-06-17T05:20:06.687Z,30.01
2018-06-17T05:21:06.694Z,29.33
2018-06-17T05:22:06.699Z,29.90
2018-06-17T05:23:06.706Z,28.68
2018-06-17T05:24:06.711Z,29.64
2018-06-17T05:25:06.717Z,30.35
2018-06-17T05:26:06.724Z,29.86
2018-06-17T05:27:06.730Z,30.43
2018-06-17T05:28:06.734Z,31.10
2018-06-17T05:29:06.740Z,31.36
2018-06-17T05:30:06.747Z,32.06
2018-06-17T05:31:06.754Z,32.06
2018-06-17T05:32:06.761Z,32.48
2018-06-17T05:33:06.766Z,32.26
2018-06-17T05:34:06.772Z,32.10
2018-06-17T05:35:06.777Z,32.52
2018-06-17T05:36:06.783Z,32.93
2018-06-17T05:37:06.790Z,32.78
2018-06-17T05:38:06.795Z,32.06
2018-06-17T05:39:06.799Z,32.96
2018-06-17T05:40:06.807Z,32.78
2018-06-17T05:41:06.815Z,33.15
2018-06-17T05:42:06.819Z,33.37
2018-06-17T05:43:06.827Z,33.57
2018-06-17T05:44:06.835Z,33.73
2018-06-17T05:45:06.840Z,33.94
2018-06-17T05:46:06.850Z,33.61
2018-06-17T05:47:06.852Z,33.01
2018-06-17T05:48:06.857Z,32.74
2018-06-17T05:49:06.864Z,32.72
2018-06-17T05:50:06.871Z,33.23
2018-06-17T05:51:06.879Z,32.82
2018-06-17T05:52:06.884Z,33.59
2018-06-17T05:53:06.890Z,33.00
2018-06-17T05:54:06.898Z,33.35
2018-06-17T05:55:06.905Z,34.19
2018-06-17T05:56:06.910Z,34.10
2018-06-17T05:57:06.918Z,34.50
2018-06-17T05:58:06.926Z,34.32
2018-06-17T05:59:06.936Z,34.34
2018-06-17T06:00:06.941Z,34.75
2018-06-17T06:01:06.949Z,34.25
2018-06-17T06:02:06.955Z,33.56
2018-06-17T06:03:06.961Z,33.69
2018-06-17T06:04:07.103Z,32.94
2018-06-17T06:05:06.976Z,32.60
2018-06-17T06:06:06.982Z,32.93
2018-06-17T06:07:06.987Z,32.70
2018-06-17T06:08:06.994Z,32.14
2018-06-17T06:09:07.000Z,31.73
2018-06-17T06:10:07.016Z,31.70
2018-06-17T06:11:07.013Z,31.88
2018-06-17T06:12:07.037Z,31.81
2018-06-17T06:13:07.030Z,32.06
2018-06-17T06:14:07.036Z,32.56
2018-06-17T06:15:07.045Z,32.74
2018-06-17T06:16:07.051Z,32.48
2018-06-17T06:17:07.055Z,32.48
2018-06-17T06:18:07.062Z,33.22
2018-06-17T06:19:07.069Z,32.93
2018-06-17T06:20:07.075Z,33.16
2018-06-17T06:21:07.087Z,32.97
2018-06-17T06:22:07.093Z,32.88
2018-06-17T06:23:07.101Z,33.31
2018-06-17T06:24:07.108Z,33.35
2018-06-17T06:25:07.116Z,33.68
2018-06-17T06:26:07.120Z,33.94
2018-06-17T06:27:07.131Z,33.72
2018-06-17T06:28:07.137Z,34.28
2018-06-17T06:29:07.150Z,34.59
2018-06-17T06:30:07.154Z,34.96
2018-06-17T06:31:07.160Z,34.91
2018-06-17T06:32:07.167Z,35.43
2018-06-17T06:33:07.173Z,35.63
2018-06-17T06:34:07.187Z,35.85
2018-06-17T06:35:07.191Z,35.07
2018-06-17T06:36:07.199Z,35.06
2018-06-17T06:37:07.204Z,35.43
2018-06-17T06:38:07.215Z,35.75
2018-06-17T06:39:07.220Z,35.96
2018-06-17T06:40:07.226Z,36.29
2018-06-17T06:41:07.238Z,35.71
2018-06-17T06:42:07.243Z,36.37
2018-06-17T06:43:07.251Z,36.76
2018-06-17T06:44:07.259Z,36.69
2018-06-17T06:45:07.266Z,36.16
2018-06-17T06:46:07.282Z,35.89
2018-06-17T06:47:07.283Z,36.19
2018-06-17T06:48:07.291Z,36.13
2018-06-17T06:49:07.299Z,36.09
2018-06-17T06:50:07.368Z,35.97
2018-06-17T06:51:07.369Z,34.87
2018-06-17T06:52:07.326Z,35.04
2018-06-17T06:53:07.335Z,35.25
2018-06-17T06:54:07.344Z,35.16
2018-06-17T06:55:07.353Z,35.50
2018-06-17T06:56:07.367Z,35.70
2018-06-17T06:57:07.373Z,35.34
2018-06-17T06:58:07.379Z,35.89
2018-06-17T06:59:07.388Z,35.75
2018-06-17T07:00:07.397Z,36.22
2018-06-17T07:01:07.405Z,36.47
2018-06-17T07:02:07.415Z,35.96
2018-06-17T07:03:07.424Z,35.72
2018-06-17T07:04:07.433Z,35.31
2018-06-17T07:05:07.442Z,35.78
2018-06-17T07:06:07.452Z,35.56
2018-06-17T07:07:07.462Z,35.93
2018-06-17T07:08:07.469Z,36.29
2018-06-17T07:09:07.484Z,35.56
2018-06-17T07:10:07.492Z,35.40
2018-06-17T07:11:07.493Z,34.58
2018-06-17T07:12:07.507Z,34.73
2018-06-17T07:13:07.517Z,35.21
2018-06-17T07:14:07.535Z,35.50
2018-06-17T07:15:07.538Z,35.87
2018-06-17T07:16:07.545Z,35.68
2018-06-17T07:17:07.558Z,35.89
2018-06-17T07:18:07.567Z,35.97
2018-06-17T07:19:07.577Z,35.58
2018-06-17T07:20:07.586Z,35.43
2018-06-17T07:21:07.596Z,34.58
2018-06-17T07:22:07.605Z,34.35
2018-06-17T07:23:07.616Z,35.04
2018-06-17T07:24:07.625Z,34.70
2018-06-17T07:25:07.695Z,34.32
2018-06-17T07:26:07.650Z,34.40
2018-06-17T07:27:07.654Z,34.35
2018-06-17T07:28:07.665Z,34.66
2018-06-17T07:29:07.675Z,34.31
2018-06-17T07:30:07.681Z,34.75
2018-06-17T07:31:07.696Z,34.85
2018-06-17T07:32:07.704Z,35.04
2018-06-17T07:33:07.715Z,34.73
2018-06-17T07:34:07.725Z,33.31
2018-06-17T07:35:07.735Z,32.84
2018-06-17T07:36:07.744Z,33.76
2018-06-17T07:37:07.753Z,32.56
2018-06-17T07:38:07.767Z,32.50
2018-06-17T07:39:07.774Z,32.50
2018-06-17T07:40:07.786Z,32.03
2018-06-17T07:41:07.793Z,31.51
2018-06-17T07:42:07.808Z,31.34
2018-06-17T07:43:07.814Z,32.21
2018-06-17T07:44:07.823Z,32.59
2018-06-17T07:45:07.832Z,32.93
2018-06-17T07:46:07.842Z,32.47
2018-06-17T07:47:07.852Z,33.21
2018-06-17T07:48:07.860Z,32.67
2018-06-17T07:49:07.870Z,31.78
2018-06-17T07:50:07.879Z,30.99
2018-06-17T07:51:07.889Z,30.75
2018-06-17T07:52:07.900Z,30.43
2018-06-17T07:53:07.908Z,30.79
2018-06-17T07:54:07.918Z,30.83
2018-06-17T07:55:07.927Z,31.19
2018-06-17T07:56:07.997Z,30.99
2018-06-17T07:57:07.945Z,31.16
2018-06-17T07:58:07.958Z,31.32
2018-06-17T07:59:07.964Z,31.06
2018-06-17T08:00:07.972Z,31.38
2018-06-17T08:01:07.982Z,31.48
2018-06-17T08:02:07.990Z,31.58
2018-06-17T08:03:07.999Z,32.07
2018-06-17T08:04:08.007Z,31.58
2018-06-17T08:05:08.017Z,30.95
2018-06-17T08:06:08.025Z,31.06
2018-06-17T08:07:08.032Z,31.29
2018-06-17T08:08:08.049Z,31.73
2018-06-17T08:09:08.055Z,32.29
2018-06-17T08:10:08.071Z,32.89
2018-06-17T08:11:08.152Z,33.68
2018-06-17T08:12:08.083Z,33.11
2018-06-17T08:13:08.091Z,32.74
2018-06-17T08:14:08.102Z,32.18
2018-06-17T08:15:08.120Z,30.16
2018-06-17T08:16:08.124Z,29.90
2018-06-17T08:17:08.130Z,29.39
2018-06-17T08:18:08.137Z,29.51
2018-06-17T08:19:08.148Z,30.00
2018-06-17T08:20:08.208Z,30.65
2018-06-17T08:21:08.165Z,30.97
2018-06-17T08:22:08.180Z,31.14
2018-06-17T08:23:08.185Z,31.70
2018-06-17T08:24:08.188Z,32.18
2018-06-17T08:25:08.201Z,32.35
2018-06-17T08:26:08.213Z,32.23
2018-06-17T08:27:08.223Z,32.93
2018-06-17T08:28:08.233Z,33.01
2018-06-17T08:29:08.239Z,32.06
2018-06-17T08:30:08.250Z,31.65
2018-06-17T08:31:08.272Z,31.09
2018-06-17T08:32:08.267Z,30.38
2018-06-17T08:33:08.278Z,30.32
2018-06-17T08:34:08.289Z,31.51
2018-06-17T08:35:08.298Z,31.16
2018-06-17T08:36:08.308Z,31.54
2018-06-17T08:37:08.317Z,31.93
2018-06-17T08:38:08.327Z,31.92
2018-06-17T08:39:08.383Z,32.11
2018-06-17T08:40:08.350Z,32.82
2018-06-17T08:41:08.356Z,32.89
2018-06-17T08:42:08.365Z,33.14
2018-06-17T08:43:08.374Z,32.85
2018-06-17T08:44:08.383Z,32.28
2018-06-17T08:45:08.397Z,31.95
2018-06-17T08:46:08.411Z,32.65
2018-06-17T08:47:08.418Z,33.26
2018-06-17T08:48:08.426Z,33.47
2018-06-17T08:49:08.443Z,32.85
2018-06-17T08:50:08.449Z,33.47
2018-06-17T08:51:08.461Z,33.78
2018-06-17T08:52:08.476Z,33.73
2018-06-17T08:53:08.483Z,34.35
2018-06-17T08:54:08.531Z,34.15
2018-06-17T08:55:08.508Z,34.66
2018-06-17T08:56:08.515Z,34.64
2018-06-17T08:57:08.529Z,34.66
2018-06-17T08:58:08.537Z,33.37
2018-06-17T08:59:08.549Z,33.51
2018-06-17T09:00:08.578Z,32.97
2018-06-17T09:01:08.571Z,33.16
2018-06-17T09:02:08.584Z,32.29
2018-06-17T09:03:08.597Z,31.61
2018-06-17T09:04:08.605Z,31.72
2018-06-17T09:05:08.615Z,31.43
2018-06-17T09:06:08.625Z,30.67
2018-06-17T09:07:08.635Z,30.47
2018-06-17T09:08:08.642Z,30.83
2018-06-17T09:09:08.655Z,30.80
2018-06-17T09:10:08.662Z,30.67
2018-06-17T09:11:08.668Z,30.67
2018-06-17T09:12:08.677Z,30.37
2018-06-17T09:13:08.689Z,30.04
2018-06-17T09:14:08.703Z,29.73
2018-06-17T09:15:08.708Z,29.06
2018-06-17T09:16:08.716Z,28.78
2018-06-17T09:17:08.727Z,28.88
2018-06-17T09:18:08.731Z,28.36
2018-06-17T09:19:08.739Z,28.12
2018-06-17T09:20:08.747Z,28.14
2018-06-17T09:21:08.755Z,28.18
2018-06-17T09:22:08.761Z,28.15
2018-06-17T09:23:08.771Z,27.96
2018-06-17T09:24:08.775Z,27.90
2018-06-17T09:25:08.822Z,27.85
2018-06-17T09:26:08.789Z,28.00
2018-06-17T09:27:08.798Z,27.70
2018-06-17T09:28:08.803Z,27.92
2018-06-17T09:29:08.813Z,27.67
2018-06-17T09:30:08.818Z,27.21
2018-06-17T09:31:08.825Z,26.77
2018-06-17T09:32:08.887Z,27.00
2018-06-17T09:33:08.834Z,27.09
2018-06-17T09:34:08.845Z,26.92
2018-06-17T09:35:08.851Z,26.81
2018-06-17T09:36:08.857Z,26.89
2018-06-17T09:37:08.863Z,26.99
2018-06-17T09:38:08.869Z,27.09
2018-06-17T09:39:08.877Z,26.94
2018-06-17T09:40:08.881Z,27.02
2018-06-17T09:41:08.884Z,27.00
2018-06-17T09:42:08.890Z,26.82
2018-06-17T09:43:08.900Z,26.92
2018-06-17T09:44:08.907Z,26.80
2018-06-17T09:45:08.913Z,26.82
2018-06-17T09:46:08.919Z,26.58
2018-06-17T09:47:08.924Z,26.58
2018-06-17T09:48:08.931Z,26.52
2018-06-17T09:49:08.939Z,26.63
2018-06-17T09:50:08.942Z,26.66
2018-06-17T09:51:08.953Z,26.66
2018-06-17T09:52:08.972Z,26.85
2018-06-17T09:53:08.958Z,26.91
2018-06-17T09:54:08.965Z,26.95
2018-06-17T09:55:08.985Z,26.88
2018-06-17T09:56:08.974Z,26.75
2018-06-17T09:57:08.980Z,26.66
2018-06-17T09:58:08.986Z,26.67
2018-06-17T09:59:08.992Z,26.80
2018-06-17T10:00:08.996Z,26.82
2018-06-17T10:01:09.001Z,26.82
2018-06-17T10:02:09.007Z,26.91
2018-06-17T10:03:09.020Z,27.02
2018-06-17T10:04:09.020Z,27.04
2018-06-17T10:05:09.024Z,27.17
2018-06-17T10:06:09.031Z,27.04
2018-06-17T10:07:09.037Z,27.03
2018-06-17T10:08:09.042Z,27.22
2018-06-17T10:09:09.047Z,27.25
2018-06-17T10:10:09.053Z,27.22
2018-06-17T10:11:09.060Z,27.24
2018-06-17T10:12:09.066Z,27.31
2018-06-17T10:13:09.070Z,27.44
2018-06-17T10:14:09.078Z,27.31
2018-06-17T10:15:09.081Z,27.25
2018-06-17T10:16:09.087Z,26.95
2018-06-17T10:17:09.092Z,27.06
2018-06-17T10:18:09.098Z,27.03
2018-06-17T10:19:09.106Z,27.25
2018-06-17T10:20:09.103Z,27.43
2018-06-17T10:21:09.132Z,27.78
2018-06-17T10:22:09.120Z,27.74
2018-06-17T10:23:09.126Z,27.78
2018-06-17T10:24:09.132Z,27.78
2018-06-17T10:25:09.137Z,27.59
2018-06-17T10:26:09.142Z,27.90
2018-06-17T10:27:09.149Z,27.92
2018-06-17T10:28:09.154Z,27.79
2018-06-17T10:29:09.157Z,27.70
2018-06-17T10:30:09.164Z,27.78
2018-06-17T10:31:09.172Z,27.50
2018-06-17T10:32:09.177Z,27.43
2018-06-17T10:33:09.182Z,27.18
2018-06-17T10:34:09.188Z,27.29
2018-06-17T10:35:09.194Z,27.02
2018-06-17T10:36:09.201Z,27.21
2018-06-17T10:37:09.205Z,27.25
2018-06-17T10:38:09.276Z,26.97
2018-06-17T10:39:09.218Z,27.10
2018-06-17T10:40:09.221Z,27.18
2018-06-17T10:41:09.228Z,27.06
2018-06-17T10:42:09.234Z,27.06
2018-06-17T10:43:09.241Z,26.84
2018-06-17T10:44:09.244Z,26.95
2018-06-17T10:45:09.253Z,27.00
2018-06-17T10:46:09.257Z,26.99
2018-06-17T10:47:09.263Z,27.06
2018-06-17T10:48:09.270Z,27.36
2018-06-17T10:49:09.276Z,27.32
2018-06-17T10:50:09.282Z,27.39
2018-06-17T10:51:09.288Z,27.62
2018-06-17T10:52:09.290Z,27.54
2018-06-17T10:53:09.300Z,27.41
2018-06-17T10:54:09.307Z,27.36
2018-06-17T10:55:09.308Z,27.51
2018-06-17T10:56:09.365Z,27.28
2018-06-17T10:57:09.325Z,27.19
2018-06-17T10:58:09.329Z,26.97
2018-06-17T10:59:09.332Z,26.80
2018-06-17T11:00:09.340Z,26.80
2018-06-17T11:01:09.350Z,27.00
2018-06-17T11:02:09.348Z,26.94
2018-06-17T11:03:09.358Z,27.03
2018-06-17T11:04:09.361Z,27.00
2018-06-17T11:05:09.367Z,27.03
2018-06-17T11:06:09.371Z,26.84
2018-06-17T11:07:09.380Z,26.97
2018-06-17T11:08:09.387Z,27.02
2018-06-17T11:09:09.387Z,27.24
2018-06-17T11:10:09.395Z,27.31
2018-06-17T11:11:09.401Z,27.36
2018-06-17T11:12:09.404Z,27.51
2018-06-17T11:13:09.462Z,27.69
2018-06-17T11:14:09.416Z,27.90
2018-06-17T11:15:09.423Z,28.25
2018-06-17T11:16:09.427Z,28.15
2018-06-17T11:17:09.434Z,27.88
2018-06-17T11:18:09.440Z,27.72
2018-06-17T11:19:09.446Z,27.59
2018-06-17T11:20:09.452Z,27.12
2018-06-17T11:21:09.459Z,27.00
2018-06-17T11:22:09.463Z,27.03
2018-06-17T11:23:09.470Z,26.95
2018-06-17T11:24:09.475Z,26.97
2018-06-17T11:25:09.481Z,26.67
2018-06-17T11:26:09.486Z,26.60
2018-06-17T11:27:09.497Z,26.62
2018-06-17T11:28:09.504Z,26.47
2018-06-17T11:29:09.504Z,26.26
2018-06-17T11:30:09.507Z,26.10
2018-06-17T11:31:09.514Z,26.06
2018-06-17T11:32:09.525Z,26.17
2018-06-17T11:33:09.526Z,26.12
2018-06-17T11:34:09.532Z,26.17
2018-06-17T11:35:09.537Z,26.02
2018-06-17T11:36:09.540Z,25.91
2018-06-17T11:37:09.547Z,26.17
2018-06-17T11:38:09.551Z,26.21
2018-06-17T11:39:09.738Z,26.37
2018-06-17T11:40:09.564Z,26.26
2018-06-17T11:41:09.570Z,26.26
2018-06-17T11:42:09.575Z,26.18
2018-06-17T11:43:09.585Z,26.32
2018-06-17T11:44:09.587Z,26.40
2018-06-17T11:45:09.592Z,26.32
2018-06-17T11:46:09.601Z,26.36
2018-06-17T11:47:09.608Z,26.25
2018-06-17T11:48:09.608Z,26.07
2018-06-17T11:49:09.616Z,25.97
2018-06-17T11:50:09.624Z,26.09
2018-06-17T11:51:09.625Z,26.18
2018-06-17T11:52:09.629Z,26.28
2018-06-17T11:53:09.636Z,26.40
2018-06-17T11:54:09.640Z,26.32
2018-06-17T11:55:09.644Z,26.33
2018-06-17T11:56:09.651Z,26.33
2018-06-17T11:57:09.655Z,26.48
2018-06-17T11:58:09.659Z,26.54
2018-06-17T11:59:09.663Z,26.58
2018-06-17T12:00:09.668Z,26.60
2018-06-17T12:01:09.672Z,26.60
2018-06-17T12:02:09.681Z,26.72
2018-06-17T12:03:09.685Z,26.88
2018-06-17T12:04:09.689Z,26.94
2018-06-17T12:05:09.695Z,27.09
2018-06-17T12:06:09.701Z,27.12
2018-06-17T12:07:09.707Z,27.27
2018-06-17T12:08:09.713Z,27.50
2018-06-17T12:09:09.772Z,27.75
2018-06-17T12:10:09.726Z,27.84
2018-06-17T12:11:09.727Z,28.14
2018-06-17T12:12:09.732Z,28.02
2018-06-17T12:13:09.740Z,28.22
2018-06-17T12:14:09.743Z,28.31
2018-06-17T12:15:09.749Z,28.22
2018-06-17T12:16:09.758Z,28.12
2018-06-17T12:17:09.760Z,28.02
2018-06-17T12:18:09.764Z,27.96
2018-06-17T12:19:09.776Z,27.79
2018-06-17T12:20:09.783Z,27.93
2018-06-17T12:21:09.782Z,27.44
2018-06-17T12:22:09.792Z,27.67
2018-06-17T12:23:09.798Z,27.88
2018-06-17T12:24:09.799Z,27.93
2018-06-17T12:25:09.807Z,27.97
2018-06-17T12:26:09.811Z,28.14
2018-06-17T12:27:09.816Z,28.27
2018-06-17T12:28:09.822Z,28.59
2018-06-17T12:29:09.824Z,28.58
2018-06-17T12:30:09.831Z,28.74
2018-06-17T12:31:09.839Z,28.44
2018-06-17T12:32:09.844Z,28.61
2018-06-17T12:33:09.850Z,28.52
2018-06-17T12:34:09.856Z,28.30
2018-06-17T12:35:09.864Z,28.29
2018-06-17T12:36:09.865Z,28.04
2018-06-17T12:37:09.875Z,27.93
2018-06-17T12:38:09.883Z,27.88
2018-06-17T12:39:09.887Z,27.96
2018-06-17T12:40:09.889Z,27.90
2018-06-17T12:41:09.897Z,27.69
2018-06-17T12:42:09.904Z,27.62
2018-06-17T12:43:09.909Z,27.85
2018-06-17T12:44:09.915Z,28.02
2018-06-17T12:45:09.921Z,28.15
2018-06-17T12:46:09.927Z,28.41
2018-06-17T12:47:09.936Z,28.56
2018-06-17T12:48:09.939Z,28.66
2018-06-17T12:49:09.954Z,28.67
2018-06-17T12:50:09.955Z,28.44
2018-06-17T12:51:09.957Z,28.58
2018-06-17T12:52:09.966Z,28.59